Terminal Aerodrome Forecast
Issued by NWS

Home | Current Version | Previous Version | Text Only | Print | Product List | Glossary On
Versions: 1 2 3 4 5 6 7 8 9 10 11 12 13 14 15 16 17 18 19 20 21 22 23 24
000
FTUS44 KEWX 180143 AAA
TAFSSF
TAF AMD
KSSF 180143Z 1802/1824 36003KT P6SM FEW045 BKN100
      TEMPO 1802/1803 3SM -SHRA BR BKN030
     FM180500 05006KT P6SM OVC010
     FM180800 VRB03KT 5SM BR BKN010
     FM181500 18005KT P6SM BKN030
     FM181800 18007KT P6SM SCT030 BKN150 PROB30 1818/1822 3SM -TSRA
      BKN030CB=

USA.gov is the U.S. government's official web portal to all federal, state and local government web resources and services.